createdAt,value
2018-10-07T00:02:30.471Z,21.00
2018-10-07T00:04:57.431Z,20.90
2018-10-07T00:07:24.482Z,20.90
2018-10-07T00:09:50.664Z,20.90
2018-10-07T00:12:17.231Z,20.90
2018-10-07T00:14:44.137Z,21.00
2018-10-07T00:17:16.188Z,21.00
2018-10-07T00:19:46.378Z,21.00
2018-10-07T00:22:12.599Z,21.00
2018-10-07T00:24:38.781Z,21.00
2018-10-07T00:27:06.532Z,20.90
2018-10-07T00:29:35.018Z,20.90
2018-10-07T00:32:01.172Z,20.90
2018-10-07T00:34:27.325Z,20.90
2018-10-07T00:36:53.803Z,20.90
2018-10-07T00:39:19.958Z,21.00
2018-10-07T00:44:19.310Z,21.00
2018-10-07T00:46:45.541Z,20.90
2018-10-07T00:49:11.688Z,20.90
2018-10-07T00:51:37.883Z,20.90
2018-10-07T00:54:04.170Z,21.00
2018-10-07T00:56:30.320Z,20.90
2018-10-07T00:58:56.464Z,20.90
2018-10-07T01:01:22.621Z,20.90
2018-10-07T01:03:49.016Z,20.90
2018-10-07T01:06:15.324Z,20.90
2018-10-07T01:08:42.237Z,20.90
2018-10-07T01:11:08.945Z,20.90
2018-10-07T01:16:06.887Z,20.90
2018-10-07T01:18:33.970Z,20.90
2018-10-07T01:21:00.140Z,20.90
2018-10-07T01:23:26.336Z,20.90
2018-10-07T01:25:52.496Z,20.90
2018-10-07T01:28:18.668Z,20.90
2018-10-07T01:30:44.993Z,20.90
2018-10-07T01:33:11.156Z,20.90
2018-10-07T01:35:38.140Z,20.90
2018-10-07T01:38:04.984Z,20.90
2018-10-07T01:40:31.143Z,20.90
2018-10-07T01:42:57.476Z,20.90
2018-10-07T01:45:23.632Z,20.90
2018-10-07T01:47:49.865Z,20.90
2018-10-07T01:50:16.284Z,20.90
2018-10-07T01:52:42.499Z,21.00
2018-10-07T01:55:08.639Z,21.00
2018-10-07T01:57:35.577Z,20.90
2018-10-07T02:00:02.350Z,20.90
2018-10-07T02:02:28.517Z,20.90
2018-10-07T02:04:58.491Z,20.90
2018-10-07T02:07:24.994Z,20.90
2018-10-07T02:09:51.375Z,20.90
2018-10-07T02:12:17.591Z,20.90
2018-10-07T02:14:46.480Z,20.90
2018-10-07T02:17:12.696Z,21.00
2018-10-07T02:19:38.992Z,20.90
2018-10-07T02:22:05.134Z,20.90
2018-10-07T02:24:31.312Z,20.90
2018-10-07T02:26:58.043Z,20.90
2018-10-07T02:29:24.353Z,20.90
2018-10-07T02:31:51.287Z,20.90
2018-10-07T02:34:17.453Z,20.90
2018-10-07T02:36:43.604Z,20.90
2018-10-07T02:39:09.779Z,20.90
2018-10-07T02:41:35.947Z,20.90
2018-10-07T02:44:04.489Z,20.90
2018-10-07T02:46:30.635Z,20.90
2018-10-07T02:48:56.825Z,21.00
2018-10-07T02:51:23.405Z,20.90
2018-10-07T02:53:49.543Z,20.90
2018-10-07T02:56:15.771Z,20.90
2018-10-07T02:58:41.923Z,20.90
2018-10-07T03:01:08.129Z,20.90
2018-10-07T03:03:34.387Z,20.90
2018-10-07T03:06:00.596Z,20.90
2018-10-07T03:08:26.745Z,20.90
2018-10-07T03:10:53.153Z,20.90
2018-10-07T03:13:19.308Z,20.90
2018-10-07T03:15:45.623Z,20.90
2018-10-07T03:18:12.536Z,20.90
2018-10-07T03:20:40.288Z,20.90
2018-10-07T03:23:06.576Z,20.90
2018-10-07T03:25:33.444Z,20.90
2018-10-07T03:27:59.600Z,20.90
2018-10-07T03:30:25.812Z,20.90
2018-10-07T03:32:52.999Z,20.90
2018-10-07T03:35:19.184Z,20.90
2018-10-07T03:37:45.591Z,20.90
2018-10-07T03:40:11.788Z,20.90
2018-10-07T03:42:37.957Z,20.90
2018-10-07T03:45:04.319Z,20.90
2018-10-07T03:47:30.480Z,20.90
2018-10-07T03:49:56.630Z,20.90
2018-10-07T03:52:22.791Z,20.90
2018-10-07T03:54:48.939Z,20.90
2018-10-07T03:57:15.312Z,20.90
2018-10-07T03:59:42.228Z,20.90
2018-10-07T04:02:08.400Z,20.90
2018-10-07T04:04:34.544Z,20.90
2018-10-07T04:07:00.696Z,20.90
2018-10-07T04:09:26.998Z,20.90
2018-10-07T04:11:53.308Z,20.90
2018-10-07T04:14:19.481Z,20.90
2018-10-07T04:16:46.460Z,20.90
2018-10-07T04:19:12.768Z,20.90
2018-10-07T04:21:41.794Z,20.90
2018-10-07T04:24:08.836Z,20.90
2018-10-07T04:26:35.961Z,20.90
2018-10-07T04:31:34.467Z,20.90
2018-10-07T04:34:00.762Z,20.90
2018-10-07T04:36:27.075Z,20.90
2018-10-07T04:38:53.295Z,20.90
2018-10-07T04:41:19.445Z,20.90
2018-10-07T04:43:45.660Z,20.90
2018-10-07T04:46:11.909Z,20.90
2018-10-07T04:48:38.312Z,20.90
2018-10-07T04:51:04.640Z,20.90
2018-10-07T04:53:30.814Z,20.90
2018-10-07T04:55:56.967Z,20.90
2018-10-07T04:58:23.169Z,20.80
2018-10-07T05:00:49.315Z,20.80
2018-10-07T05:03:15.461Z,20.80
2018-10-07T05:05:42.508Z,20.80
2018-10-07T05:08:09.427Z,20.80
2018-10-07T05:10:35.625Z,20.80
2018-10-07T05:13:01.795Z,20.80
2018-10-07T05:15:34.376Z,20.80
2018-10-07T05:18:00.550Z,20.80
2018-10-07T05:20:26.720Z,20.80
2018-10-07T05:22:52.956Z,20.80
2018-10-07T05:25:19.556Z,20.80
2018-10-07T05:30:17.501Z,20.80
2018-10-07T05:32:44.424Z,20.80
2018-10-07T05:35:10.918Z,20.80
2018-10-07T05:37:37.125Z,20.80
2018-10-07T05:40:03.302Z,20.70
2018-10-07T05:42:29.447Z,20.80
2018-10-07T05:44:55.644Z,20.80
2018-10-07T05:47:21.942Z,20.80
2018-10-07T05:52:19.484Z,20.80
2018-10-07T05:54:45.816Z,20.80
2018-10-07T05:57:12.166Z,20.80
2018-10-07T05:59:39.296Z,20.70
2018-10-07T06:02:05.663Z,20.70
2018-10-07T06:04:32.707Z,20.70
2018-10-07T06:06:58.844Z,20.70
2018-10-07T06:09:25.008Z,20.70
2018-10-07T06:11:51.165Z,20.70
2018-10-07T06:14:18.091Z,20.30
2018-10-07T06:16:44.405Z,20.30
2018-10-07T06:19:10.580Z,19.60
2018-10-07T06:21:36.781Z,19.40
2018-10-07T06:24:03.083Z,19.30
2018-10-07T06:29:00.700Z,19.70
2018-10-07T06:31:26.866Z,19.80
2018-10-07T06:33:53.019Z,19.80
2018-10-07T06:36:19.159Z,20.00
2018-10-07T06:38:45.383Z,20.10
2018-10-07T06:41:11.654Z,20.20
2018-10-07T06:43:37.824Z,20.30
2018-10-07T06:46:03.981Z,20.40
2018-10-07T06:48:30.432Z,20.40
2018-10-07T06:50:57.347Z,20.60
2018-10-07T06:53:23.735Z,20.60
2018-10-07T06:55:49.884Z,20.60
2018-10-07T06:58:16.047Z,20.60
2018-10-07T07:00:42.940Z,20.70
2018-10-07T07:03:10.686Z,20.70
2018-10-07T07:05:37.766Z,20.90
2018-10-07T07:08:04.433Z,20.90
2018-10-07T07:10:30.659Z,20.90
2018-10-07T07:15:29.108Z,20.90
2018-10-07T07:17:57.180Z,20.90
2018-10-07T07:20:26.368Z,21.10
2018-10-07T07:22:53.280Z,21.00
2018-10-07T07:25:19.453Z,21.00
2018-10-07T07:27:45.598Z,21.10
2018-10-07T07:30:11.742Z,21.10
2018-10-07T07:32:37.887Z,21.20
2018-10-07T07:35:04.040Z,21.20
2018-10-07T07:37:30.964Z,21.30
2018-10-07T07:39:57.504Z,21.20
2018-10-07T07:42:24.778Z,21.40
2018-10-07T07:44:51.404Z,21.40
2018-10-07T07:47:18.010Z,21.30
2018-10-07T07:49:44.229Z,21.30
2018-10-07T07:52:10.468Z,21.30
2018-10-07T07:54:36.631Z,21.50
2018-10-07T07:57:02.880Z,21.40
2018-10-07T07:59:33.720Z,21.40
2018-10-07T08:01:59.968Z,21.40
2018-10-07T08:04:27.509Z,21.60
2018-10-07T08:06:53.667Z,21.70
2018-10-07T08:09:20.961Z,21.60
2018-10-07T08:14:19.556Z,21.80
2018-10-07T08:16:45.710Z,21.80
2018-10-07T08:19:12.629Z,21.70
2018-10-07T08:21:38.796Z,21.70
2018-10-07T08:24:04.943Z,21.70
2018-10-07T08:29:25.303Z,22.20
2018-10-07T08:31:52.549Z,21.60
2018-10-07T08:34:22.671Z,21.60
2018-10-07T08:39:21.274Z,21.80
2018-10-07T08:41:47.488Z,22.00
2018-10-07T08:44:14.736Z,21.70
2018-10-07T08:46:41.410Z,21.60
2018-10-07T08:49:07.871Z,21.60
2018-10-07T08:51:34.187Z,21.70
2018-10-07T08:54:01.180Z,21.60
2018-10-07T08:56:27.518Z,21.60
2018-10-07T08:58:54.317Z,21.60
2018-10-07T09:01:20.643Z,21.60
2018-10-07T09:03:48.073Z,21.80
2018-10-07T09:06:14.539Z,21.80
2018-10-07T09:08:40.822Z,21.70
2018-10-07T09:11:07.916Z,21.70
2018-10-07T09:13:34.151Z,21.70
2018-10-07T09:16:00.555Z,22.00
2018-10-07T09:18:27.631Z,21.80
2018-10-07T09:20:54.001Z,21.80
2018-10-07T09:23:21.130Z,21.70
2018-10-07T09:25:52.608Z,21.70
2018-10-07T09:28:19.047Z,22.00
2018-10-07T09:30:45.220Z,21.90
2018-10-07T09:33:11.404Z,21.80
2018-10-07T09:35:37.596Z,21.70
2018-10-07T09:38:03.903Z,21.80
2018-10-07T09:40:30.292Z,22.00
2018-10-07T09:42:56.584Z,22.00
2018-10-07T09:45:22.912Z,21.80
2018-10-07T09:47:49.256Z,21.70
2018-10-07T09:50:15.570Z,21.90
2018-10-07T09:52:41.720Z,22.10
2018-10-07T09:55:08.014Z,22.10
2018-10-07T09:57:34.928Z,21.80
2018-10-07T10:00:01.208Z,21.80
2018-10-07T10:02:28.543Z,21.90
2018-10-07T10:04:54.689Z,22.10
2018-10-07T10:07:20.941Z,22.10
2018-10-07T10:09:47.956Z,22.00
2018-10-07T10:12:14.196Z,21.90
2018-10-07T10:14:41.113Z,22.00
2018-10-07T10:17:08.022Z,22.20
2018-10-07T10:19:34.225Z,22.20
2018-10-07T10:22:00.504Z,22.10
2018-10-07T10:24:27.431Z,22.00
2018-10-07T10:26:53.599Z,22.00
2018-10-07T10:29:19.757Z,22.10
2018-10-07T10:31:46.952Z,22.20
2018-10-07T10:34:13.296Z,22.10
2018-10-07T10:36:40.383Z,22.10
2018-10-07T10:39:07.672Z,22.30
2018-10-07T10:41:37.484Z,22.40
2018-10-07T10:44:03.871Z,22.40
2018-10-07T10:46:30.448Z,22.20
2018-10-07T10:48:58.589Z,22.20
2018-10-07T10:51:24.802Z,22.20
2018-10-07T10:53:52.751Z,22.20
2018-10-07T10:56:19.784Z,22.30
2018-10-07T10:58:46.273Z,22.20
2018-10-07T11:01:12.484Z,22.20
2018-10-07T11:03:38.712Z,22.20
2018-10-07T11:06:04.871Z,22.40
2018-10-07T11:08:31.111Z,22.50
2018-10-07T11:10:57.400Z,22.30
2018-10-07T11:13:23.804Z,22.20
2018-10-07T11:15:52.659Z,22.20
2018-10-07T11:18:18.975Z,22.30
2018-10-07T11:20:45.708Z,22.60
2018-10-07T11:23:12.908Z,22.40
2018-10-07T11:25:39.995Z,22.30
2018-10-07T11:28:06.225Z,22.20
2018-10-07T11:30:32.379Z,22.50
2018-10-07T11:32:59.715Z,22.70
2018-10-07T11:35:25.919Z,22.60
2018-10-07T11:37:52.849Z,22.30
2018-10-07T11:40:19.036Z,22.30
2018-10-07T11:42:46.016Z,22.40
2018-10-07T11:45:12.615Z,22.60
2018-10-07T11:47:38.928Z,22.80
2018-10-07T11:50:05.263Z,22.50
2018-10-07T11:52:31.584Z,22.40
2018-10-07T11:54:57.802Z,22.40
2018-10-07T11:57:24.855Z,22.80
2018-10-07T11:59:51.915Z,22.60
2018-10-07T12:02:20.324Z,22.60
2018-10-07T12:04:47.645Z,22.50
2018-10-07T12:07:13.978Z,22.50
2018-10-07T12:09:40.148Z,22.50
2018-10-07T12:12:06.291Z,22.70
2018-10-07T12:14:32.435Z,22.80
2018-10-07T12:16:59.474Z,22.50
2018-10-07T12:19:26.395Z,22.60
2018-10-07T12:21:52.596Z,22.50
2018-10-07T12:24:18.903Z,22.60
2018-10-07T12:26:46.720Z,22.80
2018-10-07T12:29:12.872Z,22.80
2018-10-07T12:31:39.257Z,22.60
2018-10-07T12:34:05.603Z,22.50
2018-10-07T12:36:34.690Z,22.60
2018-10-07T12:39:01.097Z,22.70
2018-10-07T12:41:27.252Z,22.90
2018-10-07T12:43:58.654Z,22.80
2018-10-07T12:46:25.628Z,22.50
2018-10-07T12:48:51.916Z,22.50
2018-10-07T12:51:18.081Z,22.60
2018-10-07T12:53:44.496Z,22.80
2018-10-07T12:56:11.420Z,22.80
2018-10-07T12:58:37.721Z,22.80
2018-10-07T13:01:04.015Z,22.70
2018-10-07T13:03:30.163Z,22.60
2018-10-07T13:05:56.335Z,22.90
2018-10-07T13:08:23.471Z,23.10
2018-10-07T13:10:49.611Z,23.10
2018-10-07T13:13:15.798Z,22.90
2018-10-07T13:15:42.103Z,22.70
2018-10-07T13:18:09.993Z,22.90
2018-10-07T13:20:36.135Z,22.80
2018-10-07T13:23:02.436Z,23.00
2018-10-07T13:25:28.703Z,23.10
2018-10-07T13:27:58.907Z,22.90
2018-10-07T13:30:25.302Z,22.70
2018-10-07T13:32:51.712Z,22.70
2018-10-07T13:35:17.869Z,22.90
2018-10-07T13:37:45.884Z,23.10
2018-10-07T13:40:12.081Z,23.20
2018-10-07T13:42:38.243Z,23.00
2018-10-07T13:45:04.435Z,22.80
2018-10-07T13:47:30.657Z,22.80
2018-10-07T13:49:56.799Z,22.90
2018-10-07T13:52:22.940Z,23.10
2018-10-07T13:54:49.099Z,23.30
2018-10-07T13:57:15.412Z,23.20
2018-10-07T13:59:42.202Z,22.90
2018-10-07T14:02:09.164Z,23.00
2018-10-07T14:04:36.496Z,22.90
2018-10-07T14:07:03.564Z,23.20
2018-10-07T14:09:31.496Z,23.20
2018-10-07T14:11:58.579Z,23.00
2018-10-07T14:14:24.729Z,23.00
2018-10-07T14:16:51.457Z,22.90
2018-10-07T14:19:17.631Z,23.00
2018-10-07T14:21:44.584Z,23.30
2018-10-07T14:24:10.950Z,23.30
2018-10-07T14:26:37.912Z,23.40
2018-10-07T14:29:04.284Z,23.30
2018-10-07T14:31:30.564Z,23.10
2018-10-07T14:33:57.796Z,23.10
2018-10-07T14:36:24.864Z,23.50
2018-10-07T14:38:52.027Z,23.40
2018-10-07T14:41:18.340Z,23.50
2018-10-07T14:43:45.437Z,23.30
2018-10-07T14:46:11.733Z,23.30
2018-10-07T14:48:37.940Z,23.30
2018-10-07T14:51:04.858Z,23.70
2018-10-07T14:53:31.082Z,23.70
2018-10-07T14:55:57.256Z,23.70
2018-10-07T14:58:23.615Z,23.80
2018-10-07T15:00:49.829Z,23.50
2018-10-07T15:03:15.972Z,23.50
2018-10-07T15:05:42.281Z,23.60
2018-10-07T15:08:10.144Z,23.70
2018-10-07T15:10:36.297Z,23.40
2018-10-07T15:13:02.821Z,22.70
2018-10-07T15:15:29.566Z,22.60
2018-10-07T15:17:55.828Z,22.60
2018-10-07T15:20:21.997Z,22.20
2018-10-07T15:22:49.337Z,22.80
2018-10-07T15:25:16.696Z,22.60
2018-10-07T15:27:43.638Z,22.60
2018-10-07T15:30:10.602Z,22.70
2018-10-07T15:32:36.827Z,22.70
2018-10-07T15:35:03.417Z,22.90
2018-10-07T15:37:29.593Z,23.10
2018-10-07T15:39:55.744Z,23.10
2018-10-07T15:42:22.062Z,22.70
2018-10-07T15:44:48.281Z,22.50
2018-10-07T15:47:14.932Z,22.90
2018-10-07T15:49:41.104Z,22.80
2018-10-07T15:52:08.920Z,22.90
2018-10-07T15:54:35.081Z,22.70
2018-10-07T15:57:01.295Z,22.50
2018-10-07T15:59:28.020Z,22.50
2018-10-07T16:01:59.636Z,22.50
2018-10-07T16:04:25.998Z,22.60
2018-10-07T16:06:52.389Z,22.90
2018-10-07T16:09:18.660Z,22.60
2018-10-07T16:11:44.803Z,22.50
2018-10-07T16:14:11.039Z,22.60
2018-10-07T16:16:41.560Z,22.90
2018-10-07T16:19:07.980Z,23.20
2018-10-07T16:21:35.291Z,23.30
2018-10-07T16:24:02.657Z,23.10
2018-10-07T16:26:28.895Z,23.00
2018-10-07T16:28:55.192Z,23.30
2018-10-07T16:31:22.358Z,23.40
2018-10-07T16:33:52.876Z,23.50
2018-10-07T16:36:19.065Z,23.40
2018-10-07T16:38:47.045Z,23.40
2018-10-07T16:41:16.896Z,23.40
2018-10-07T16:43:43.119Z,23.40
2018-10-07T16:46:09.345Z,23.30
2018-10-07T16:48:35.491Z,23.30
2018-10-07T16:51:02.730Z,23.30
2018-10-07T16:53:29.721Z,23.20
2018-10-07T16:55:59.114Z,23.20
2018-10-07T16:58:26.096Z,23.10
2018-10-07T17:00:52.301Z,23.10
2018-10-07T17:03:18.679Z,23.10
2018-10-07T17:05:44.964Z,23.10
2018-10-07T17:08:11.124Z,23.10
2018-10-07T17:10:38.735Z,23.00
2018-10-07T17:13:05.970Z,23.00
2018-10-07T17:15:32.349Z,23.00
2018-10-07T17:17:58.716Z,22.90
2018-10-07T17:20:25.081Z,22.90
2018-10-07T17:22:52.132Z,22.90
2018-10-07T17:25:19.052Z,22.80
2018-10-07T17:27:45.353Z,22.90
2018-10-07T17:30:11.716Z,22.90
2018-10-07T17:32:41.184Z,22.90
2018-10-07T17:35:07.476Z,22.80
2018-10-07T17:37:34.499Z,22.70
2018-10-07T17:40:02.149Z,22.70
2018-10-07T17:42:28.316Z,22.60
2018-10-07T17:44:54.642Z,22.60
2018-10-07T17:47:21.577Z,22.40
2018-10-07T17:49:47.715Z,22.40
2018-10-07T17:52:14.784Z,22.40
2018-10-07T17:54:41.166Z,22.40
2018-10-07T17:57:11.138Z,22.30
2018-10-07T17:59:38.966Z,22.30
2018-10-07T18:02:06.816Z,22.30
2018-10-07T18:04:32.973Z,22.30
2018-10-07T18:06:59.120Z,22.30
2018-10-07T18:09:26.060Z,22.20
2018-10-07T18:11:52.291Z,22.20
2018-10-07T18:14:18.456Z,22.20
2018-10-07T18:16:48.195Z,22.20
2018-10-07T18:19:14.354Z,22.10
2018-10-07T18:21:41.324Z,22.10
2018-10-07T18:24:09.635Z,22.10
2018-10-07T18:26:35.907Z,22.10
2018-10-07T18:29:02.819Z,22.10
2018-10-07T18:31:29.445Z,22.10
2018-10-07T18:33:56.022Z,22.10
2018-10-07T18:36:23.407Z,21.90
2018-10-07T18:38:50.541Z,21.90
2018-10-07T18:41:16.773Z,22.00
2018-10-07T18:43:43.277Z,22.00
2018-10-07T18:46:09.707Z,22.00
2018-10-07T18:48:36.072Z,21.90
2018-10-07T18:51:02.412Z,21.90
2018-10-07T18:53:28.651Z,21.90
2018-10-07T18:55:54.960Z,22.00
2018-10-07T18:58:21.301Z,21.90
2018-10-07T19:00:47.476Z,21.80
2018-10-07T19:03:13.632Z,21.90
2018-10-07T19:05:39.971Z,21.90
2018-10-07T19:08:07.028Z,21.80
2018-10-07T19:10:33.245Z,21.80
2018-10-07T19:13:00.369Z,21.50
2018-10-07T19:15:26.674Z,21.50
2018-10-07T19:17:52.888Z,21.50
2018-10-07T19:20:19.091Z,21.60
2018-10-07T19:22:46.969Z,21.70
2018-10-07T19:25:13.303Z,21.70
2018-10-07T19:27:39.472Z,21.80
2018-10-07T19:30:05.633Z,21.80
2018-10-07T19:32:32.731Z,21.80
2018-10-07T19:34:58.920Z,21.80
2018-10-07T19:37:25.414Z,21.70
2018-10-07T19:39:52.006Z,21.70
2018-10-07T19:42:18.344Z,21.70
2018-10-07T19:44:44.703Z,21.70
2018-10-07T19:47:11.064Z,21.70
2018-10-07T19:49:41.084Z,21.70
2018-10-07T19:52:08.763Z,21.70
2018-10-07T19:54:35.096Z,21.70
2018-10-07T19:57:01.759Z,21.70
2018-10-07T19:59:29.535Z,21.70
2018-10-07T20:01:59.831Z,21.70
2018-10-07T20:04:26.263Z,21.70
2018-10-07T20:06:52.873Z,21.70
2018-10-07T20:09:19.248Z,21.70
2018-10-07T20:11:45.608Z,21.70
2018-10-07T20:14:11.753Z,21.70
2018-10-07T20:16:38.043Z,21.70
2018-10-07T20:19:04.424Z,21.70
2018-10-07T20:21:31.512Z,21.70
2018-10-07T20:23:57.943Z,21.60
2018-10-07T20:26:24.438Z,21.60
2018-10-07T20:28:53.189Z,21.60
2018-10-07T20:31:19.826Z,21.60
2018-10-07T20:33:46.207Z,21.60
2018-10-07T20:36:12.696Z,21.60
2018-10-07T20:38:39.252Z,21.60
2018-10-07T20:41:05.437Z,21.60
2018-10-07T20:43:31.589Z,21.60
2018-10-07T20:45:57.795Z,21.60
2018-10-07T20:48:24.472Z,21.60
2018-10-07T20:50:50.861Z,21.60
2018-10-07T20:53:17.884Z,21.60
2018-10-07T20:55:44.475Z,21.60
2018-10-07T20:58:12.209Z,21.60
2018-10-07T21:00:38.356Z,21.60
2018-10-07T21:03:04.572Z,21.60
2018-10-07T21:05:32.045Z,21.60
2018-10-07T21:07:58.393Z,21.50
2018-10-07T21:10:29.349Z,21.50
2018-10-07T21:12:59.205Z,21.50
2018-10-07T21:15:26.288Z,21.50
2018-10-07T21:17:52.442Z,21.50
2018-10-07T21:20:18.717Z,21.50
2018-10-07T21:22:44.982Z,21.50
2018-10-07T21:25:12.000Z,21.50
2018-10-07T21:27:38.343Z,21.50
2018-10-07T21:30:04.501Z,21.40
2018-10-07T21:32:30.768Z,21.50
2018-10-07T21:34:57.932Z,21.40
2018-10-07T21:37:24.268Z,21.40
2018-10-07T21:39:51.416Z,21.40
2018-10-07T21:42:17.825Z,21.40
2018-10-07T21:44:44.909Z,21.40
2018-10-07T21:47:11.337Z,21.40
2018-10-07T21:49:37.848Z,21.40
2018-10-07T21:52:04.291Z,21.40
2018-10-07T21:54:31.363Z,21.40
2018-10-07T21:56:57.687Z,21.40
2018-10-07T21:59:24.305Z,21.40
2018-10-07T22:01:51.212Z,21.40
2018-10-07T22:04:17.384Z,21.40
2018-10-07T22:06:43.519Z,21.30
2018-10-07T22:09:09.911Z,21.30
2018-10-07T22:11:41.195Z,21.30
2018-10-07T22:14:07.521Z,21.30
2018-10-07T22:16:33.759Z,21.30
2018-10-07T22:19:00.117Z,21.30
2018-10-07T22:21:26.349Z,21.30
2018-10-07T22:23:52.655Z,21.30
2018-10-07T22:26:18.827Z,21.30
2018-10-07T22:28:45.994Z,21.30
2018-10-07T22:31:12.446Z,21.30
2018-10-07T22:33:40.901Z,21.20
2018-10-07T22:36:09.684Z,21.30
2018-10-07T22:38:35.946Z,21.20
2018-10-07T22:41:02.948Z,21.30
2018-10-07T22:43:29.133Z,21.20
2018-10-07T22:45:55.403Z,21.20
2018-10-07T22:48:21.591Z,21.20
2018-10-07T22:50:48.685Z,21.20
2018-10-07T22:53:15.139Z,21.20
2018-10-07T22:55:41.307Z,21.20
2018-10-07T22:58:11.129Z,21.20
2018-10-07T23:00:37.339Z,21.20
2018-10-07T23:03:05.395Z,21.20
2018-10-07T23:05:32.459Z,21.10
2018-10-07T23:07:58.831Z,21.10
2018-10-07T23:10:25.056Z,21.20
2018-10-07T23:12:51.203Z,21.20
2018-10-07T23:15:18.412Z,21.20
2018-10-07T23:17:45.180Z,21.20
2018-10-07T23:20:11.445Z,21.10
2018-10-07T23:22:37.672Z,21.10
2018-10-07T23:25:04.036Z,21.10
2018-10-07T23:30:06.358Z,21.10
2018-10-07T23:32:32.649Z,21.10
2018-10-07T23:34:59.737Z,21.10
2018-10-07T23:37:26.150Z,21.10
2018-10-07T23:39:52.569Z,21.10
2018-10-07T23:42:18.921Z,21.10
2018-10-07T23:44:47.722Z,21.10
2018-10-07T23:47:14.039Z,21.10
2018-10-07T23:49:40.461Z,21.00
2018-10-07T23:52:06.867Z,21.00
2018-10-07T23:54:33.323Z,21.00
2018-10-07T23:56:59.646Z,21.00
2018-10-07T23:59:29.269Z,21.00
